Centreville, Illinois
Current Conditions -  °F | °C
As of 7:53 PM on Friday 21 Nov 2014 (Local Time) from KCPS Reporting Station
Overcast Overcast  
Wind Chill: 37°   Ceiling: 2200
Heat Index: 42°   Visibility: 10mi
Dew Point: 25°   Wind: 9mph
Humidity: 51%   Direction: 140°SE
Pressure: 30.28"   Gusts: NA
Location:  38.6057°N, 90.1182°W
Report Text: KCPS 220153Z 14008KT 10SM OVC022 06/M04 A3028 RMK AO2 SLP256 T00561039
Loading
Personal Weather Stations






























Interactive Weather Map New forecast layout! Learn more

10-Day Weather Forecast

Advertisements
Track Severe Weather on mobile